Time;durP1;ratioP1;P1;durP2;ratioP2;P2;SDS_P1;SDS_P2;PMS_P1;PMS_P2;Temp;Humidity;BMP_temperature;BMP_pressure;BME280_temperature;BME280_humidity;BME280_pressure;Samples;Min_cycle;Max_cycle;Signal;HPM_P1;HPM_P2
2024/02/17 00:04:36;;;;;;;10.75;5.65;;;;;;;13.87;73.48;101029.75;10299045;28;20053;-64
2024/02/17 00:09:37;;;;;;;8.40;5.45;;;;;;;13.91;72.96;101038.34;10298989;28;20050;-67
2024/02/17 00:14:39;;;;;;;8.88;5.30;;;;;;;13.76;73.12;101054.47;10297409;28;20097;-65
2024/02/17 00:19:41;;;;;;;8.30;4.82;;;;;;;13.61;72.99;101052.56;10296590;28;20054;-66
2024/02/17 00:24:43;;;;;;;10.60;5.20;;;;;;;13.46;72.71;101057.03;10305904;28;22059;-67
2024/02/17 00:29:44;;;;;;;8.65;5.03;;;;;;;13.29;72.75;101061.66;10303084;28;20568;-66
2024/02/17 00:34:46;;;;;;;8.82;5.25;;;;;;;13.03;73.15;101064.63;10300472;28;20055;-66
2024/02/17 00:39:47;;;;;;;8.15;4.70;;;;;;;12.86;72.79;101061.97;10301731;28;20057;-66
2024/02/17 00:44:49;;;;;;;6.88;4.18;;;;;;;12.67;73.26;101075.84;10301927;28;20042;-68
2024/02/17 00:49:50;;;;;;;7.93;4.60;;;;;;;12.58;72.82;101069.66;10303538;28;20130;-67
2024/02/17 00:54:52;;;;;;;7.60;3.92;;;;;;;12.47;73.01;101084.31;10295030;28;20138;-67
2024/02/17 00:59:53;;;;;;;9.23;4.55;;;;;;;12.43;72.97;101088.38;10299618;28;20048;-64
2024/02/17 01:04:55;;;;;;;9.10;4.80;;;;;;;12.40;72.98;101101.34;10298179;28;20052;-67
2024/02/17 01:09:56;;;;;;;8.07;4.65;;;;;;;12.35;73.02;101107.25;10280811;28;20453;-66
2024/02/17 01:14:58;;;;;;;7.22;4.03;;;;;;;12.21;73.14;101116.00;10302394;28;20082;-68
2024/02/17 01:19:59;;;;;;;7.97;4.38;;;;;;;12.18;73.10;101117.16;10303886;28;20573;-62
2024/02/17 01:25:01;;;;;;;11.55;5.60;;;;;;;12.09;73.25;101110.94;10297571;28;20130;-62
2024/02/17 01:30:04;;;;;;;9.88;4.95;;;;;;;12.10;73.25;101122.56;10296477;28;20101;-63
2024/02/17 01:35:05;;;;;;;10.50;5.18;;;;;;;12.05;73.25;101114.97;10298145;28;20046;-62
2024/02/17 01:40:07;;;;;;;10.18;5.45;;;;;;;12.03;73.14;101143.13;10300951;28;20047;-63
2024/02/17 01:45:10;;;;;;;9.63;5.07;;;;;;;11.90;73.05;101149.81;10288694;28;20747;-62
2024/02/17 01:50:13;;;;;;;9.80;4.97;;;;;;;11.87;73.19;101154.69;10303051;28;20059;-62
2024/02/17 01:55:16;;;;;;;8.98;5.28;;;;;;;11.84;73.44;101155.00;10293440;28;20146;-62
2024/02/17 02:00:18;;;;;;;11.07;5.53;;;;;;;11.81;73.49;101166.94;10306426;28;20488;-64
2024/02/17 02:05:21;;;;;;;10.77;5.38;;;;;;;11.77;73.92;101167.41;10307147;28;20501;-63
2024/02/17 02:10:22;;;;;;;11.77;5.95;;;;;;;11.69;73.51;101174.47;10311117;28;20146;-62
2024/02/17 02:15:24;;;;;;;11.82;7.45;;;;;;;11.62;73.64;101177.97;10298055;28;20042;-63
2024/02/17 02:20:41;;;;;;;10.37;5.60;;;;;;;11.47;73.82;101186.69;10302471;28;20952;-61
2024/02/17 02:25:50;;;;;;;11.70;5.85;;;;;;;11.46;73.57;101195.75;10304430;28;20468;-61
2024/02/17 02:30:55;;;;;;;13.27;6.97;;;;;;;11.39;73.96;101204.63;10310075;28;20062;-61
2024/02/17 02:35:57;;;;;;;15.98;8.82;;;;;;;11.41;74.05;101205.31;10308148;28;20053;-62
2024/02/17 02:40:59;;;;;;;16.50;7.78;;;;;;;11.53;74.24;101209.41;10304014;28;20472;-61
2024/02/17 02:46:00;;;;;;;18.52;9.27;;;;;;;11.74;73.29;101202.78;10302385;28;20046;-61
2024/02/17 02:51:02;;;;;;;15.43;7.72;;;;;;;11.86;73.32;101209.53;10305325;28;20438;-62
2024/02/17 02:56:04;;;;;;;17.73;8.23;;;;;;;11.77;73.55;101218.59;10305439;28;20417;-61
2024/02/17 03:01:05;;;;;;;15.32;8.52;;;;;;;11.87;73.20;101214.78;10286966;28;20051;-61
2024/02/17 03:06:07;;;;;;;16.13;7.70;;;;;;;11.99;73.46;101223.44;10307055;28;20069;-61
2024/02/17 03:11:13;;;;;;;20.08;9.77;;;;;;;12.08;73.43;101222.47;10303894;28;20051;-60
2024/02/17 03:16:25;;;;;;;16.20;9.07;;;;;;;12.25;72.49;101241.38;10293116;28;20061;-62
2024/02/17 03:21:26;;;;;;;16.67;8.90;;;;;;;12.32;72.95;101242.38;10299859;28;20046;-61
2024/02/17 03:26:28;;;;;;;16.98;8.23;;;;;;;12.42;72.61;101240.41;10305613;28;20489;-60
2024/02/17 03:31:29;;;;;;;16.48;8.50;;;;;;;12.44;72.59;101253.69;10305899;28;20055;-60
2024/02/17 03:36:32;;;;;;;17.38;8.48;;;;;;;12.48;72.62;101258.59;10306567;28;20468;-60
2024/02/17 03:41:37;;;;;;;18.55;9.20;;;;;;;12.48;72.33;101266.69;10303541;28;20105;-60
2024/02/17 03:46:39;;;;;;;16.10;7.32;;;;;;;12.40;73.10;101268.50;10307198;28;20133;-61
2024/02/17 03:51:41;;;;;;;15.07;6.47;;;;;;;12.41;73.28;101262.97;10309915;28;20160;-62
2024/02/17 03:56:43;;;;;;;14.30;7.55;;;;;;;12.45;72.97;101271.56;10296124;28;21098;-61
2024/02/17 04:01:44;;;;;;;13.13;7.97;;;;;;;12.55;73.01;101291.13;10299236;28;20054;-61
2024/02/17 04:06:47;;;;;;;14.43;7.30;;;;;;;12.73;72.54;101300.94;10300217;28;20101;-60
2024/02/17 04:11:49;;;;;;;14.25;7.05;;;;;;;12.76;72.23;101312.25;10300957;28;20074;-61
2024/02/17 04:16:50;;;;;;;15.77;7.20;;;;;;;12.59;72.79;101319.47;10305126;28;20192;-60
2024/02/17 04:21:52;;;;;;;13.75;8.15;;;;;;;12.51;72.87;101322.13;10303457;28;20054;-59
2024/02/17 04:26:54;;;;;;;13.63;7.97;;;;;;;12.45;72.56;101329.03;10293129;28;20493;-59
2024/02/17 04:31:57;;;;;;;17.92;7.82;;;;;;;12.37;72.89;101349.75;10301835;28;20082;-60
2024/02/17 04:36:59;;;;;;;15.05;6.78;;;;;;;12.36;72.35;101345.34;10301828;28;20590;-58
2024/02/17 04:42:00;;;;;;;11.45;6.25;;;;;;;12.28;72.41;101363.19;10301808;28;20105;-59
2024/02/17 04:47:02;;;;;;;13.85;6.00;;;;;;;12.18;72.36;101362.47;10301609;28;20058;-59
2024/02/17 04:52:04;;;;;;;13.98;7.38;;;;;;;12.02;72.80;101373.16;10294044;28;20101;-60
2024/02/17 04:57:05;;;;;;;14.82;7.15;;;;;;;11.88;73.43;101379.97;10297043;28;20078;-59
2024/02/17 05:02:07;;;;;;;12.43;6.57;;;;;;;11.71;73.49;101393.34;10298103;28;20054;-60
2024/02/17 05:07:08;;;;;;;12.73;7.43;;;;;;;11.57;73.17;101395.72;10293935;28;20574;-60
2024/02/17 05:12:10;;;;;;;12.02;7.63;;;;;;;11.43;72.90;101397.13;10299372;28;20046;-60
2024/02/17 05:17:12;;;;;;;11.05;7.22;;;;;;;11.39;73.28;101417.31;10309150;28;20054;-60
2024/02/17 05:22:13;;;;;;;10.10;5.82;;;;;;;11.38;72.68;101415.63;10314664;28;20096;-60
2024/02/17 05:27:15;;;;;;;11.05;5.60;;;;;;;11.42;72.44;101414.31;10311184;28;20146;-59
2024/02/17 05:32:17;;;;;;;9.98;5.55;;;;;;;11.45;72.42;101406.78;10293697;28;20050;-60
2024/02/17 05:37:18;;;;;;;11.60;5.90;;;;;;;11.46;72.28;101424.59;10306289;28;20050;-61
2024/02/17 05:42:20;;;;;;;13.02;6.40;;;;;;;11.52;72.10;101423.13;10307538;28;20258;-63
2024/02/17 05:47:21;;;;;;;9.40;5.53;;;;;;;11.59;71.78;101428.75;10302415;28;20046;-61
2024/02/17 05:52:23;;;;;;;11.73;6.65;;;;;;;11.57;72.45;101436.13;10306510;28;20050;-61
2024/02/17 05:57:24;;;;;;;15.50;7.32;;;;;;;11.71;71.94;101447.19;10308904;28;20043;-61
2024/02/17 06:02:26;;;;;;;11.63;6.28;;;;;;;11.70;71.76;101442.81;10308447;28;20432;-65
2024/02/17 06:07:29;;;;;;;12.15;6.60;;;;;;;11.73;71.99;101454.25;10302811;28;20046;-65
2024/02/17 06:12:31;;;;;;;12.20;7.50;;;;;;;11.76;71.75;101454.81;10307239;28;20050;-65
2024/02/17 06:17:41;;;;;;;11.27;6.50;;;;;;;11.80;71.87;101452.66;10309484;28;20108;-66
2024/02/17 06:22:43;;;;;;;11.77;6.90;;;;;;;11.84;71.95;101460.25;10293181;28;20521;-65
2024/02/17 06:27:45;;;;;;;18.73;8.57;;;;;;;11.85;72.09;101469.19;10304219;28;20104;-64
2024/02/17 06:32:46;;;;;;;20.10;8.93;;;;;;;11.83;72.23;101482.81;10306317;28;20502;-69
2024/02/17 06:37:48;;;;;;;17.75;8.85;;;;;;;11.90;72.11;101491.16;10306078;28;20429;-68
2024/02/17 06:42:50;;;;;;;19.58;7.97;;;;;;;11.93;71.62;101496.25;10305565;28;20557;-68
2024/02/17 06:47:51;;;;;;;17.60;7.97;;;;;;;11.80;72.24;101509.22;10304764;28;20058;-68
2024/02/17 06:52:53;;;;;;;16.88;8.50;;;;;;;11.93;71.47;101511.53;10308250;28;20054;-67
2024/02/17 06:57:54;;;;;;;14.68;8.38;;;;;;;11.85;71.35;101518.53;10303196;28;20514;-67
2024/02/17 07:02:56;;;;;;;14.70;8.68;;;;;;;11.79;71.89;101523.69;10318140;28;20173;-65
2024/02/17 07:07:58;;;;;;;19.63;8.15;;;;;;;11.76;71.46;101537.47;10319282;28;20612;-65
2024/02/17 07:13:02;;;;;;;16.73;8.70;;;;;;;11.73;71.34;101544.03;10297040;28;20074;-65
2024/02/17 07:18:05;;;;;;;15.73;8.68;;;;;;;11.77;71.80;101564.25;10315467;28;20055;-65
2024/02/17 07:23:07;;;;;;;15.80;8.40;;;;;;;11.77;71.48;101564.25;10306592;28;20061;-65
2024/02/17 07:28:11;;;;;;;18.35;9.68;;;;;;;11.83;71.36;101587.91;10316395;28;20050;-65
2024/02/17 07:33:16;;;;;;;17.17;9.05;;;;;;;11.86;71.77;101592.13;10312232;28;20050;-65
2024/02/17 07:38:18;;;;;;;15.63;8.52;;;;;;;12.00;71.71;101605.06;10294142;28;20054;-65
2024/02/17 07:43:20;;;;;;;15.48;8.32;;;;;;;12.12;71.59;101610.25;10293014;28;20437;-65
2024/02/17 07:48:21;;;;;;;14.23;7.93;;;;;;;12.39;71.56;101609.28;10284962;28;20109;-65
2024/02/17 07:53:23;;;;;;;16.20;8.55;;;;;;;12.65;71.39;101618.22;10306327;28;20113;-65
2024/02/17 07:58:25;;;;;;;16.00;8.43;;;;;;;12.80;71.28;101618.50;10288399;28;20065;-65
2024/02/17 08:03:27;;;;;;;16.00;8.43;;;;;;;12.92;71.24;101637.97;10306330;28;20054;-65
2024/02/17 08:08:29;;;;;;;17.75;8.18;;;;;;;13.14;70.93;101646.53;10310714;28;20046;-65
2024/02/17 08:13:31;;;;;;;16.80;8.43;;;;;;;13.37;70.30;101661.19;10312728;28;20043;-65
2024/02/17 08:18:32;;;;;;;17.25;9.63;;;;;;;13.37;70.53;101660.34;10304794;28;20449;-65
2024/02/17 08:23:34;;;;;;;20.70;9.75;;;;;;;13.37;70.32;101669.31;10307144;28;20585;-65
2024/02/17 08:28:36;;;;;;;18.77;8.77;;;;;;;13.37;70.10;101676.53;10294487;28;20046;-65
2024/02/17 08:33:38;;;;;;;18.50;9.32;;;;;;;13.45;70.15;101677.44;10307452;28;20054;-65
2024/02/17 08:38:39;;;;;;;19.63;9.60;;;;;;;13.59;69.93;101678.69;10298677;28;20046;-65
2024/02/17 08:43:41;;;;;;;18.67;9.52;;;;;;;13.65;69.90;101683.41;10307125;28;20105;-65
2024/02/17 08:48:42;;;;;;;19.02;9.10;;;;;;;13.67;70.21;101688.66;10308737;28;20485;-65
2024/02/17 08:53:44;;;;;;;17.77;9.18;;;;;;;13.79;69.68;101695.47;10304689;28;20053;-65
2024/02/17 08:58:46;;;;;;;16.52;8.50;;;;;;;13.77;69.97;101704.75;10304524;28;20054;-65
2024/02/17 09:03:48;;;;;;;17.08;9.25;;;;;;;14.10;69.32;101708.41;10286602;28;20413;-65
2024/02/17 09:08:50;;;;;;;16.25;9.10;;;;;;;14.39;69.01;101726.84;10295492;28;20050;-65
2024/02/17 09:13:51;;;;;;;17.38;8.32;;;;;;;14.55;68.90;101727.88;10302506;28;20054;-65
2024/02/17 09:18:53;;;;;;;13.20;7.47;;;;;;;14.55;69.07;101728.72;10302311;28;20058;-65
2024/02/17 09:23:55;;;;;;;14.20;7.30;;;;;;;14.68;68.59;101715.56;10333338;28;20050;-65
2024/02/17 09:28:56;;;;;;;17.98;7.95;;;;;;;14.74;67.95;101738.41;10340646;28;20058;-65
2024/02/17 09:33:58;;;;;;;13.70;7.10;;;;;;;14.84;67.61;101736.38;10340775;28;20086;-65
2024/02/17 09:39:00;;;;;;;14.82;7.25;;;;;;;15.06;67.41;101740.25;10327466;28;20054;-66
2024/02/17 09:44:02;;;;;;;14.85;6.97;;;;;;;15.11;67.19;101747.88;10298590;28;20077;-65
2024/02/17 09:49:06;;;;;;;12.68;7.03;;;;;;;15.55;66.14;101752.84;10326211;28;20420;-65
2024/02/17 09:54:09;;;;;;;15.20;7.35;;;;;;;15.93;65.30;101757.66;10321386;28;20058;-65
2024/02/17 09:59:10;;;;;;;14.15;7.70;;;;;;;16.05;65.14;101765.25;10313609;28;20058;-65
2024/02/17 10:04:12;;;;;;;10.63;5.93;;;;;;;16.08;65.19;101768.63;10329695;28;20098;-65
2024/02/17 10:09:19;;;;;;;11.50;5.38;;;;;;;15.62;65.14;101775.53;10339729;28;20061;-64
2024/02/17 10:14:23;;;;;;;10.50;5.07;;;;;;;15.52;65.12;101783.03;10316761;28;20097;-65
2024/02/17 10:19:25;;;;;;;10.90;4.65;;;;;;;15.55;64.80;101788.09;10338324;28;20073;-65
2024/02/17 10:24:27;;;;;;;12.07;4.70;;;;;;;15.71;64.09;101789.91;10352274;28;20046;-65
2024/02/17 10:29:30;;;;;;;6.95;3.88;;;;;;;15.77;63.66;101799.25;10342762;28;20066;-67
2024/02/17 10:34:34;;;;;;;12.88;4.18;;;;;;;15.39;62.66;101807.09;10316266;28;20186;-62
2024/02/17 10:39:36;;;;;;;8.45;3.70;;;;;;;15.30;62.57;101808.13;10305198;28;20073;-62
2024/02/17 10:44:37;;;;;;;4.63;3.03;;;;;;;15.04;61.13;101825.41;10315012;28;20679;-61
2024/02/17 10:49:45;;;;;;;8.63;3.63;;;;;;;15.08;61.43;101826.75;10317810;28;20237;-62
2024/02/17 10:54:54;;;;;;;4.95;3.03;;;;;;;15.09;60.90;101828.47;10323416;28;20043;-62
2024/02/17 10:59:59;;;;;;;7.80;2.80;;;;;;;15.12;60.85;101830.81;10320766;28;20070;-63
2024/02/17 11:05:01;;;;;;;8.82;3.22;;;;;;;15.14;60.37;101841.47;10323799;28;20055;-62
2024/02/17 11:10:07;;;;;;;4.07;2.42;;;;;;;15.37;59.86;101838.94;10323686;28;20530;-61
2024/02/17 11:15:09;;;;;;;7.78;2.05;;;;;;;15.64;59.79;101840.44;10303867;28;20054;-62
2024/02/17 11:20:13;;;;;;;6.32;2.35;;;;;;;15.88;59.33;101833.25;10301612;28;20059;-63
2024/02/17 11:25:33;;;;;;;6.88;2.22;;;;;;;15.90;59.26;101839.38;10319767;28;20047;-61
2024/02/17 11:30:58;;;;;;;3.92;2.40;;;;;;;16.16;58.96;101825.53;10320825;28;20182;-61
2024/02/17 11:36:03;;;;;;;7.88;2.50;;;;;;;16.14;58.91;101831.13;10319002;28;20047;-64
2024/02/17 11:41:05;;;;;;;4.20;2.55;;;;;;;15.94;58.72;101841.56;10324872;28;20057;-65
2024/02/17 11:46:06;;;;;;;9.77;3.45;;;;;;;16.12;58.78;101830.47;10324713;28;20110;-64
2024/02/17 11:51:08;;;;;;;9.43;4.32;;;;;;;16.06;58.86;101823.03;10336324;28;20054;-64
2024/02/17 11:56:10;;;;;;;6.30;3.17;;;;;;;16.18;58.83;101826.22;10335878;28;20387;-64
2024/02/17 12:01:13;;;;;;;9.10;3.60;;;;;;;16.24;58.82;101826.34;10340932;28;20130;-64
2024/02/17 12:06:15;;;;;;;5.88;3.10;;;;;;;16.22;58.70;101824.84;10341261;28;20058;-65
2024/02/17 12:11:19;;;;;;;4.82;2.63;;;;;;;15.91;58.66;101828.34;10322673;28;20065;-64
2024/02/17 12:16:21;;;;;;;4.22;2.33;;;;;;;15.78;58.13;101828.06;10334754;28;20054;-65
2024/02/17 12:21:22;;;;;;;4.60;2.33;;;;;;;15.83;57.90;101829.19;10337591;28;20054;-65
2024/02/17 12:26:28;;;;;;;5.30;2.88;;;;;;;15.60;57.59;101831.78;10326602;28;20122;-65
2024/02/17 12:31:50;;;;;;;5.40;2.13;;;;;;;15.58;57.41;101833.84;10335504;28;20311;-64
2024/02/17 12:36:54;;;;;;;4.95;2.33;;;;;;;15.56;57.04;101837.72;10322473;28;20070;-64
2024/02/17 12:42:01;;;;;;;4.95;2.35;;;;;;;15.59;56.70;101835.50;10339176;28;20064;-64
2024/02/17 12:47:14;;;;;;;4.47;1.70;;;;;;;15.65;56.41;101845.66;10335964;28;20061;-64
2024/02/17 12:52:19;;;;;;;1.67;1.20;;;;;;;15.72;56.13;101835.00;10328203;28;20065;-68
2024/02/17 12:57:21;;;;;;;5.05;0.80;;;;;;;15.77;55.74;101831.78;10301401;28;20548;-69
2024/02/17 13:02:22;;;;;;;1.75;1.08;;;;;;;15.87;54.69;101837.84;10301086;28;20072;-68
2024/02/17 13:07:24;;;;;;;3.83;1.40;;;;;;;15.96;54.80;101834.09;10302824;28;20116;-69
2024/02/17 13:12:25;;;;;;;5.63;1.95;;;;;;;16.07;54.94;101832.84;10304865;28;20062;-69
2024/02/17 13:17:28;;;;;;;3.63;1.00;;;;;;;16.21;54.40;101826.72;10300932;28;20047;-69
2024/02/17 13:22:30;;;;;;;2.20;0.98;;;;;;;16.49;54.07;101837.09;10302292;28;20077;-68
2024/02/17 13:27:38;;;;;;;2.72;0.70;;;;;;;16.74;53.39;101843.19;10299981;28;20051;-67
2024/02/17 13:32:43;;;;;;;2.72;0.60;;;;;;;16.70;53.15;101847.28;10298318;28;20057;-67
2024/02/17 13:37:45;;;;;;;1.55;0.45;;;;;;;16.46;52.78;101840.13;10309264;28;20124;-68
2024/02/17 13:42:46;;;;;;;1.30;0.50;;;;;;;16.32;52.41;101849.88;10306611;28;20050;-68
2024/02/17 13:47:49;;;;;;;2.00;0.70;;;;;;;16.21;52.61;101859.28;10294051;28;20821;-69
2024/02/17 13:52:51;;;;;;;3.42;0.65;;;;;;;16.17;52.87;101866.06;10312406;28;20051;-68
2024/02/17 13:57:53;;;;;;;1.80;0.73;;;;;;;16.17;53.20;101870.63;10308142;28;20039;-69
2024/02/17 14:02:54;;;;;;;1.25;0.50;;;;;;;16.01;52.78;101875.09;10324237;28;20137;-62
2024/02/17 14:07:56;;;;;;;4.00;0.60;;;;;;;15.88;51.92;101879.34;10310500;28;20192;-62
2024/02/17 14:12:58;;;;;;;2.08;0.95;;;;;;;15.93;52.84;101869.69;10309080;28;20665;-61
2024/02/17 14:18:01;;;;;;;2.50;0.60;;;;;;;15.72;53.32;101883.78;10317474;28;20047;-62
2024/02/17 14:23:03;;;;;;;1.20;0.80;;;;;;;15.61;53.73;101893.09;10302364;28;20097;-62
2024/02/17 14:28:05;;;;;;;2.63;0.80;;;;;;;15.60;54.13;101891.44;10311240;28;20055;-62
2024/02/17 14:33:08;;;;;;;2.95;0.70;;;;;;;15.70;54.39;101893.09;10316076;28;20070;-63
2024/02/17 14:38:10;;;;;;;2.10;1.45;;;;;;;15.59;54.77;101899.72;10315819;28;20066;-61
2024/02/17 14:43:12;;;;;;;6.88;0.90;;;;;;;15.74;54.47;101889.91;10319669;28;20046;-62
2024/02/17 14:48:13;;;;;;;1.10;0.52;;;;;;;16.04;54.53;101884.75;10316020;28;20043;-63
2024/02/17 14:53:15;;;;;;;3.78;0.85;;;;;;;16.33;54.08;101896.84;10310297;28;20078;-62
2024/02/17 14:58:17;;;;;;;1.42;0.85;;;;;;;16.66;53.94;101892.13;10299745;28;20129;-63
2024/02/17 15:03:20;;;;;;;6.35;1.75;;;;;;;16.82;53.93;101889.34;10294193;28;20194;-62
2024/02/17 15:08:23;;;;;;;4.78;1.65;;;;;;;16.95;53.75;101898.78;10305156;28;20046;-61
2024/02/17 15:13:26;;;;;;;2.78;1.15;;;;;;;17.04;54.06;101903.09;10327134;28;20055;-65
2024/02/17 15:18:28;;;;;;;4.93;2.80;;;;;;;17.03;54.51;101906.88;10333397;28;20074;-65
2024/02/17 15:23:31;;;;;;;6.63;2.22;;;;;;;17.08;54.64;101909.91;10338692;28;20081;-65
2024/02/17 15:28:33;;;;;;;8.00;2.83;;;;;;;17.05;55.03;101923.84;10308985;28;20073;-65
2024/02/17 15:33:35;;;;;;;2.50;2.08;;;;;;;17.02;55.42;101921.47;10310833;28;20054;-64
2024/02/17 15:38:37;;;;;;;6.20;1.85;;;;;;;16.99;55.52;101921.84;10327261;28;20486;-64
2024/02/17 15:43:39;;;;;;;4.63;2.50;;;;;;;16.92;55.64;101931.72;10301434;28;20047;-65
2024/02/17 15:48:40;;;;;;;5.35;2.13;;;;;;;16.86;56.00;101933.28;10318222;28;20047;-66
2024/02/17 15:53:43;;;;;;;4.80;2.22;;;;;;;16.76;56.28;101933.47;10298746;28;20057;-66
2024/02/17 15:58:45;;;;;;;6.03;2.70;;;;;;;16.67;56.41;101939.97;10301157;28;20055;-66
2024/02/17 16:03:47;;;;;;;6.43;2.80;;;;;;;16.63;56.26;101928.63;10302248;28;20054;-66
2024/02/17 16:08:49;;;;;;;8.93;2.75;;;;;;;16.56;56.52;101940.38;10303143;28;20074;-66
2024/02/17 16:13:50;;;;;;;4.15;2.15;;;;;;;16.50;56.79;101944.63;10292386;28;20713;-66
2024/02/17 16:18:52;;;;;;;6.18;3.60;;;;;;;16.41;57.30;101956.53;10285970;28;20544;-66
2024/02/17 16:23:55;;;;;;;7.65;3.58;;;;;;;16.26;57.66;101946.41;10306210;28;20047;-62
2024/02/17 16:28:57;;;;;;;3.90;3.00;;;;;;;16.14;57.91;101952.38;10302009;28;20058;-63
2024/02/17 16:34:00;;;;;;;11.15;4.53;;;;;;;16.00;58.17;101957.50;10305241;28;20082;-63
2024/02/17 16:39:07;;;;;;;9.38;3.97;;;;;;;15.91;58.40;101961.22;10304323;28;20493;-63
2024/02/17 16:44:09;;;;;;;7.35;4.07;;;;;;;15.80;58.84;101975.16;10308422;28;20640;-64
2024/02/17 16:49:12;;;;;;;8.23;4.47;;;;;;;15.68;59.11;101974.63;10302143;28;20133;-63
2024/02/17 16:54:14;;;;;;;7.05;3.13;;;;;;;15.53;59.22;101979.84;10288799;28;20096;-63
2024/02/17 16:59:16;;;;;;;10.55;4.15;;;;;;;15.34;59.92;101989.13;10300509;28;20116;-63
2024/02/17 17:04:18;;;;;;;10.68;5.03;;;;;;;15.34;59.80;102001.84;10299322;28;20138;-63
2024/02/17 17:09:20;;;;;;;9.30;4.22;;;;;;;15.26;59.95;101999.97;10277513;28;20047;-63
2024/02/17 17:14:22;;;;;;;7.00;3.92;;;;;;;15.18;60.45;102005.38;10312553;28;20052;-63
2024/02/17 17:19:24;;;;;;;8.88;5.72;;;;;;;15.05;60.75;102017.53;10314825;28;20057;-63
2024/02/17 17:24:26;;;;;;;11.18;4.75;;;;;;;15.04;60.56;102023.09;10303490;28;20074;-65
2024/02/17 17:29:34;;;;;;;11.20;6.65;;;;;;;14.87;61.41;102033.03;10317737;28;20107;-64
2024/02/17 17:34:35;;;;;;;9.07;5.13;;;;;;;14.88;61.00;102024.72;10292201;28;20066;-65
2024/02/17 17:39:37;;;;;;;6.63;2.85;;;;;;;14.76;61.08;102036.88;10310472;28;20054;-66
2024/02/17 17:44:39;;;;;;;6.18;3.70;;;;;;;14.81;61.20;102036.38;10297575;28;20057;-66
2024/02/17 17:49:42;;;;;;;7.10;4.53;;;;;;;14.78;61.19;102045.69;10313691;28;20046;-65
2024/02/17 17:54:47;;;;;;;12.20;7.28;;;;;;;14.56;61.96;102047.09;10310629;28;20050;-64
2024/02/17 17:59:52;;;;;;;12.77;7.05;;;;;;;14.52;61.91;102050.25;10307420;28;20133;-63
2024/02/17 18:04:53;;;;;;;13.98;7.45;;;;;;;14.52;61.84;102047.53;10309807;28;20054;-63
2024/02/17 18:09:56;;;;;;;14.35;8.63;;;;;;;14.51;62.02;102045.84;10314212;28;20098;-63
2024/02/17 18:14:59;;;;;;;14.63;7.68;;;;;;;14.45;62.19;102048.19;10307212;28;20061;-63
2024/02/17 18:20:02;;;;;;;12.63;8.10;;;;;;;14.42;62.27;102053.91;10312267;28;20132;-64
2024/02/17 18:25:04;;;;;;;18.45;10.20;;;;;;;14.42;62.66;102050.38;10308451;28;20073;-63
2024/02/17 18:30:07;;;;;;;19.73;9.57;;;;;;;14.36;62.71;102065.38;10301312;28;20070;-64
2024/02/17 18:35:08;;;;;;;18.67;11.82;;;;;;;14.31;62.91;102058.72;10307748;28;20061;-65
2024/02/17 18:40:10;;;;;;;17.08;10.38;;;;;;;14.30;62.98;102057.91;10314387;28;20054;-64
2024/02/17 18:45:12;;;;;;;15.88;8.50;;;;;;;14.32;63.24;102065.84;10311005;28;20050;-62
2024/02/17 18:50:13;;;;;;;22.65;10.65;;;;;;;14.27;63.30;102063.59;10309827;28;20101;-62
2024/02/17 18:55:15;;;;;;;20.65;9.68;;;;;;;14.23;63.24;102065.78;10311106;28;20078;-62
2024/02/17 19:00:18;;;;;;;18.30;8.68;;;;;;;14.16;63.27;102058.44;10308829;28;20051;-60
2024/02/17 19:05:19;;;;;;;8.82;5.70;;;;;;;13.93;63.94;102069.75;10313396;28;20054;-62
2024/02/17 19:10:21;;;;;;;11.82;5.85;;;;;;;13.97;63.71;102064.91;10329179;28;20055;-61
2024/02/17 19:15:23;;;;;;;18.10;8.82;;;;;;;13.99;63.64;102068.28;10306685;28;20055;-62
2024/02/17 19:20:25;;;;;;;15.75;7.38;;;;;;;13.98;63.63;102072.88;10314297;28;20082;-60
2024/02/17 19:25:26;;;;;;;12.90;7.00;;;;;;;13.95;63.80;102061.50;10303527;28;20066;-60
2024/02/17 19:30:28;;;;;;;13.93;6.75;;;;;;;13.91;63.71;102066.38;10302634;28;20393;-60
2024/02/17 19:35:29;;;;;;;15.85;7.05;;;;;;;13.89;63.68;102071.91;10309638;28;20120;-61
2024/02/17 19:40:34;;;;;;;11.82;5.63;;;;;;;13.90;63.72;102064.66;10305164;28;20050;-62
2024/02/17 19:45:35;;;;;;;9.65;5.72;;;;;;;13.86;63.70;102068.66;10306837;28;20528;-62
2024/02/17 19:50:37;;;;;;;10.60;5.47;;;;;;;13.81;64.15;102068.31;10307871;28;20153;-61
2024/02/17 19:55:39;;;;;;;12.18;6.45;;;;;;;13.80;64.04;102064.75;10285234;28;20065;-63
2024/02/17 20:00:41;;;;;;;19.33;8.32;;;;;;;13.78;64.03;102068.59;10284427;28;20146;-67
2024/02/17 20:05:42;;;;;;;23.27;10.13;;;;;;;13.75;64.09;102068.94;10285391;28;20129;-68
2024/02/17 20:10:45;;;;;;;18.17;9.13;;;;;;;13.71;64.22;102065.69;10297744;28;20443;-67
2024/02/17 20:15:47;;;;;;;21.13;9.02;;;;;;;13.68;64.23;102069.56;10289753;28;20089;-67
2024/02/17 20:20:49;;;;;;;18.40;9.77;;;;;;;13.66;64.33;102079.66;10298625;28;20050;-64
2024/02/17 20:25:52;;;;;;;21.45;8.95;;;;;;;13.65;64.26;102077.09;10298041;28;20074;-67
2024/02/17 20:30:54;;;;;;;18.42;8.98;;;;;;;13.60;64.68;102080.25;10300859;28;20057;-66
2024/02/17 20:35:56;;;;;;;22.77;8.85;;;;;;;13.59;64.50;102085.84;10298352;28;20402;-69
2024/02/17 20:40:58;;;;;;;20.23;8.82;;;;;;;13.51;64.85;102091.13;10303159;28;20145;-67
2024/02/17 20:45:59;;;;;;;12.18;6.93;;;;;;;13.41;65.27;102099.31;10296180;28;20129;-67
2024/02/17 20:51:01;;;;;;;11.85;7.10;;;;;;;13.34;65.40;102107.16;10296554;28;20055;-68
2024/02/17 20:56:03;;;;;;;14.52;7.57;;;;;;;13.31;65.57;102106.59;10283381;28;20070;-67
2024/02/17 21:01:04;;;;;;;15.98;7.82;;;;;;;13.31;65.63;102104.78;10281176;28;20090;-68
2024/02/17 21:06:06;;;;;;;13.43;7.07;;;;;;;13.31;65.65;102095.81;10299918;28;20069;-62
2024/02/17 21:11:09;;;;;;;18.52;7.80;;;;;;;13.27;65.94;102085.28;10300529;28;20053;-63
2024/02/17 21:16:10;;;;;;;16.17;9.88;;;;;;;13.22;66.09;102078.63;10303827;28;20509;-64
2024/02/17 21:21:12;;;;;;;21.92;11.45;;;;;;;13.04;66.25;102087.53;10306340;28;20062;-63
2024/02/17 21:26:13;;;;;;;14.80;8.88;;;;;;;13.00;66.32;102096.94;10299659;28;20134;-62
2024/02/17 21:31:15;;;;;;;17.35;8.25;;;;;;;12.86;66.84;102108.22;10300124;28;20458;-64
2024/02/17 21:36:16;;;;;;;15.48;8.65;;;;;;;12.72;67.28;102108.66;10287530;28;20580;-63
2024/02/17 21:41:19;;;;;;;16.73;8.43;;;;;;;12.76;67.12;102094.75;10302896;28;20050;-63
2024/02/17 21:46:20;;;;;;;10.88;5.88;;;;;;;12.71;67.13;102105.13;10304996;28;20484;-62
2024/02/17 21:51:22;;;;;;;10.30;5.90;;;;;;;12.59;67.77;102111.69;10295414;28;20039;-62
2024/02/17 21:56:24;;;;;;;11.85;6.30;;;;;;;12.75;67.18;102105.69;10301163;28;20383;-62
2024/02/17 22:01:25;;;;;;;22.52;8.50;;;;;;;12.85;66.83;102099.25;10307327;28;20117;-62
2024/02/17 22:06:27;;;;;;;31.83;9.75;;;;;;;12.80;67.29;102104.25;10310702;28;20058;-62
2024/02/17 22:11:29;;;;;;;18.55;8.38;;;;;;;12.80;67.21;102111.50;10309732;28;20054;-62
2024/02/17 22:16:31;;;;;;;20.25;8.05;;;;;;;12.77;67.14;102115.31;10295032;28;20073;-61
2024/02/17 22:21:33;;;;;;;23.15;8.45;;;;;;;12.86;67.08;102117.16;10313627;28;20061;-62
2024/02/17 22:26:37;;;;;;;13.80;6.28;;;;;;;12.92;66.91;102102.22;10303430;28;20382;-63
2024/02/17 22:31:38;;;;;;;27.88;8.75;;;;;;;12.76;67.26;102116.34;10311979;28;20061;-65
2024/02/17 22:36:40;;;;;;;15.52;5.97;;;;;;;12.62;67.83;102109.56;10306787;28;20053;-63
2024/02/17 22:41:42;;;;;;;9.60;5.55;;;;;;;12.78;67.24;102114.34;10307393;28;20521;-61
2024/02/17 22:46:43;;;;;;;14.55;6.20;;;;;;;12.85;66.73;102104.63;10315886;28;20050;-61
2024/02/17 22:51:45;;;;;;;17.50;7.82;;;;;;;12.83;66.92;102103.94;10308605;28;20055;-61
2024/02/17 22:56:47;;;;;;;17.08;7.80;;;;;;;12.83;66.87;102103.94;10312172;28;20062;-60
2024/02/17 23:01:49;;;;;;;16.02;7.70;;;;;;;12.84;66.85;102089.47;10309812;28;20054;-61